KCHS Airport (Charleston Afb/Intl) Information

FAA: CHS - ICAO: KCHS

KCHS Airport Location

State South Carolina
County Charleston
City Charleston
KCHS Airport is 9 miles northwest of Charleston, SC.
Latitude 32-53-55.1000N
Longitude 080-02-25.9000W
Elevation 46ft

KCHS Airport METARs

METAR KCHS 072056Z 25006KT 10SM FEW120 SCT250 27/16 A3023 RMK AO2 SLP236 T02670156 56013
Altimeter 30.23"
Temperature 26.7°C (80.1°F)
Wind 250° at 6KT
Clouds few at 12,000ft scattered at 25,000ft
Visibility 10.0mi
Time observed: 2022-12-07T20:56:00Z

KCHS Airport Details

Status Operational
Activation October 1937
Ownership Military - Air Force
Usage Public
Chart CHARLOTTE
ATC on-site Yes
Beacon schedule sunset-sunrise
Beacon color clear green

KCHS Airport Contacts

Owner USAF
Owner address JOINT BASE CHARLESTON, CHARLESTON AFB, SC 29404
Owner phone (843) 963-3028
Manager JIM TAYLOR
Manager address 129 AIRPORT ROAD, GEORGETOWN, SC 29440
Manager phone 843-545-3638

KCHS Airport (Charleston Afb/Intl) Radio Frequencies

KCHS (Airport) Radio Frequencies

UNICOM 122.95
Common traffic advisory frequency (CTAF) N/A